Nord Emperor — 3FXC7 — position and weather

sailwx.info

Track history (hours):
 
Tides and Currents Weather Stations Pressure Air Temp Water Temp Dewpoint Dewpoint Depression Visibility Wind Speed Wind Dir Waves Ship Positions

Nord Emperor

Last reported at 2018-Jan-12 14:58 UTC. Time now 2018-Jan-18 00:05 UTC.
Position N 37°37' E 025°50'.

Length 190 m; draft 12.4 m.

Type: Cargo ship. MMSI: 357960000.

Date/timePositionNaut miles runAvg speedWind from/ knotsBaromVisibWave heightAir tempDewpointWater temp
2018-Jan-12 14:58N 37°37' E 025°50'510.9
2018-Jan-12 14:30N 37°42' E 025°50'511.1
2018-Jan-12 14:00N 37°48' E 025°49'611.1
2018-Jan-12 13:30N 37°53' E 025°48'611.1
2018-Jan-12 12:59N 37°59' E 025°46'611.3
2018-Jan-12 12:28N 38°04' E 025°42'352 6.9
2018-Jan-10 09:42N 43°05' E 029°44'311.6
2018-Jan-10 09:27N 43°08' E 029°45'611.6
2018-Jan-10 08:58N 43°13' E 029°47'611.7
2018-Jan-10 08:29N 43°19' E 029°48'711.9
2018-Jan-10 07:56N 43°25' E 029°50'612.2
2018-Jan-10 07:28N 43°31' E 029°52'512.2
2018-Jan-10 07:01N 43°36' E 029°54'612.1
2018-Jan-10 06:30N 43°42' E 029°56'612.2
2018-Jan-10 06:01N 43°48' E 029°58'612.4
2018-Jan-10 05:30N 43°54' E 030°00'912.1
2018-Jan-10 04:48N 44°02' E 030°03'412.0
2018-Jan-10 04:29N 44°06' E 030°05'5212.3
2018-Jan-10 00:13N 44°55' E 030°29'512.2
2018-Jan-09 23:47N 45°00' E 030°31'7511.6
2018-Jan-09 17:19N 46°13' E 030°57'411.6
2018-Jan-09 17:00N 46°15' E 030°54'611.9
2018-Jan-09 16:31N 46°21' E 030°55'611.7
2018-Jan-09 15:59N 46°27' E 030°55'2 5.1
2018-Jan-09 15:30N 46°30' E 030°53'0 0.1
2018-Jan-09 14:54N 46°29' E 030°53'0 0.0
2018-Jan-09 14:27N 46°29' E 030°53'0 0.0
2018-Jan-09 11:54N 46°29' E 030°53'0 0.0
2018-Jan-09 09:45N 46°29' E 030°53'0 0.0
2018-Jan-09 09:30N 46°29' E 030°53'0 0.0
2018-Jan-09 08:54N 46°29' E 030°53'0 0.0
2018-Jan-09 08:27N 46°29' E 030°53'0 0.0
2018-Jan-09 08:00N 46°29' E 030°53'0 0.0
2018-Jan-09 07:21N 46°29' E 030°53'0 0.0
2018-Jan-09 06:57N 46°29' E 030°53'0 0.0
2018-Jan-09 06:27N 46°29' E 030°53'0 0.0
2018-Jan-09 05:57N 46°29' E 030°53'0 0.0
2018-Jan-09 05:18N 46°29' E 030°53'0 0.0
2018-Jan-09 04:48N 46°29' E 030°53'0 0.0
2018-Jan-09 04:30N 46°29' E 030°53'0 0.0
2018-Jan-09 03:54N 46°29' E 030°53'0 0.1
2018-Jan-09 03:30N 46°30' E 030°53'0 0.0
2018-Jan-09 03:00N 46°30' E 030°53'0 0.0
2018-Jan-09 02:21N 46°30' E 030°53'0 0.0
2018-Jan-09 01:57N 46°30' E 030°53'0 0.0
2018-Jan-09 01:30N 46°30' E 030°53'0 0.0
2018-Jan-09 01:00N 46°30' E 030°53'0 0.0
2018-Jan-09 00:30N 46°29' E 030°53'0 0.0
2018-Jan-08 23:57N 46°30' E 030°53'0 0.0
2018-Jan-08 23:30N 46°30' E 030°53'0 0.0
2018-Jan-08 22:54N 46°30' E 030°53'0 0.0
2018-Jan-08 22:18N 46°30' E 030°53'0 0.1
2018-Jan-08 21:54N 46°30' E 030°53'0 0.1
2018-Jan-08 21:30N 46°30' E 030°53'0 0.0
2018-Jan-08 20:51N 46°30' E 030°53'0 0.0
2018-Jan-08 20:18N 46°30' E 030°53'0 0.0
2018-Jan-08 20:00N 46°30' E 030°53'0 0.0
2018-Jan-08 19:24N 46°30' E 030°53'0 0.0
2018-Jan-08 19:00N 46°30' E 030°53'0 0.0
2018-Jan-08 18:27N 46°30' E 030°53'0 0.0
2018-Jan-08 17:33N 46°30' E 030°53'0 0.1
2018-Jan-08 17:30N 46°30' E 030°53'0 0.0
2018-Jan-08 16:27N 46°30' E 030°53'2 4.1
2018-Jan-08 16:00N 46°29' E 030°50'4 7.1
2018-Jan-08 15:30N 46°30' E 030°45'1 2.0
2018-Jan-08 15:00N 46°30' E 030°44'0 0.3
2018-Jan-08 14:30N 46°30' E 030°44'0 0.0
2018-Jan-08 13:46N 46°30' E 030°44'0 0.0
2018-Jan-08 13:28N 46°30' E 030°44'0 0.0
2018-Jan-08 12:49N 46°30' E 030°44'0 0.0
2018-Jan-08 12:22N 46°30' E 030°44'0 0.0
2018-Jan-08 11:52N 46°30' E 030°44'0 0.0
2018-Jan-08 11:22N 46°30' E 030°44'0 0.0
2018-Jan-08 10:58N 46°30' E 030°44'0 0.0
2018-Jan-08 10:28N 46°30' E 030°44'0 0.0
2018-Jan-08 09:58N 46°30' E 030°44'0 0.0
2018-Jan-08 09:13N 46°30' E 030°44'0 0.0
2018-Jan-08 08:49N 46°30' E 030°44'0 0.0
2018-Jan-08 08:16N 46°30' E 030°44'0 0.0
2018-Jan-08 07:55N 46°30' E 030°44'0 0.0
2018-Jan-08 07:28N 46°30' E 030°44'0 0.0
2018-Jan-08 06:58N 46°30' E 030°44'0 0.0
2018-Jan-08 06:28N 46°30' E 030°44'0 0.0
2018-Jan-08 05:55N 46°30' E 030°44'0 0.0
2018-Jan-08 05:25N 46°30' E 030°44'0 0.0
2018-Jan-08 04:46N 46°30' E 030°44'0 0.0
2018-Jan-08 04:22N 46°30' E 030°44'0 0.0
2018-Jan-08 03:49N 46°30' E 030°44'0 0.0
2018-Jan-08 03:07N 46°30' E 030°44'0 0.0
2018-Jan-08 02:55N 46°30' E 030°44'0 0.0
2018-Jan-08 02:25N 46°30' E 030°44'0 0.0
2018-Jan-08 01:37N 46°30' E 030°44'0 0.0
2018-Jan-08 01:25N 46°30' E 030°44'0 0.0
2018-Jan-08 00:58N 46°30' E 030°44'0 0.0
2018-Jan-08 00:28N 46°30' E 030°44'0 0.0
2018-Jan-07 23:49N 46°30' E 030°44'0 0.0
2018-Jan-07 23:28N 46°30' E 030°44'0 0.0
2018-Jan-07 22:58N 46°30' E 030°44'0 0.0
2018-Jan-07 22:25N 46°30' E 030°44'0 0.0
2018-Jan-07 21:49N 46°30' E 030°44'0 0.0
2018-Jan-07 21:19N 46°30' E 030°44'0 0.0
2018-Jan-07 20:58N 46°30' E 030°44'0 0.0
2018-Jan-07 20:25N 46°30' E 030°44'0 0.0
2018-Jan-07 19:55N 46°30' E 030°44'0 0.0
2018-Jan-07 19:28N 46°30' E 030°44'0 0.0
2018-Jan-07 18:52N 46°30' E 030°44'0 0.0
2018-Jan-07 18:28N 46°30' E 030°44'0 0.0
2018-Jan-07 17:58N 46°30' E 030°44'0 0.0
2018-Jan-07 17:28N 46°30' E 030°44'0 0.0
2018-Jan-07 16:58N 46°30' E 030°44'0 0.0
2018-Jan-07 16:28N 46°30' E 030°44'0 0.0
2018-Jan-07 15:58N 46°30' E 030°44'0 0.0
2018-Jan-07 15:28N 46°30' E 030°44'0 0.0
2018-Jan-07 14:58N 46°30' E 030°44'0 0.0
2018-Jan-07 14:28N 46°30' E 030°44'0 0.0
2018-Jan-07 13:58N 46°30' E 030°44'0 0.0
2018-Jan-07 13:28N 46°30' E 030°44'0 0.0
2018-Jan-07 12:58N 46°30' E 030°44'0 0.0
2018-Jan-07 12:28N 46°30' E 030°44'0 0.0
2018-Jan-07 11:55N 46°30' E 030°44'0 0.0
2018-Jan-07 11:28N 46°30' E 030°44'0 0.0
2018-Jan-07 10:55N 46°30' E 030°44'0 0.0
2018-Jan-07 10:28N 46°30' E 030°44'0 0.0
2018-Jan-07 09:55N 46°30' E 030°44'0 0.0
2018-Jan-07 09:28N 46°30' E 030°44'0 0.0
2018-Jan-07 08:58N 46°30' E 030°44'0 0.0
2018-Jan-07 08:28N 46°30' E 030°44'0 0.0
2018-Jan-07 07:55N 46°30' E 030°44'0 0.0
2018-Jan-07 07:25N 46°30' E 030°44'0 0.0
2018-Jan-07 06:55N 46°30' E 030°44'0 0.0
2018-Jan-07 06:28N 46°30' E 030°44'0 0.0
2018-Jan-07 05:58N 46°30' E 030°44'0 0.0
2018-Jan-07 05:28N 46°30' E 030°44'0 0.0
2018-Jan-07 04:58N 46°30' E 030°44'0 0.0
2018-Jan-07 04:28N 46°30' E 030°44'0 0.0
2018-Jan-07 03:58N 46°30' E 030°44'0 0.0
2018-Jan-07 03:28N 46°30' E 030°44'0 0.0
2018-Jan-07 02:58N 46°30' E 030°44'0 0.0
2018-Jan-07 02:28N 46°30' E 030°44'0 0.0
2018-Jan-07 01:58N 46°30' E 030°44'0 0.0
2018-Jan-07 01:28N 46°30' E 030°44'0 0.0
2018-Jan-07 00:28N 46°30' E 030°44'0 0.0
2018-Jan-06 23:58N 46°30' E 030°44'0 0.0
2018-Jan-06 23:28N 46°30' E 030°44'0 0.0
2018-Jan-06 22:52N 46°30' E 030°44'0 0.0
2018-Jan-06 22:25N 46°30' E 030°44'0 0.0
2018-Jan-06 21:52N 46°30' E 030°44'0 0.0
2018-Jan-06 21:25N 46°30' E 030°44'0 0.0
2018-Jan-06 20:55N 46°30' E 030°44'0 0.0
2018-Jan-06 20:28N 46°30' E 030°44'0 0.0
2018-Jan-06 19:52N 46°30' E 030°44'0 0.0
2018-Jan-06 19:25N 46°30' E 030°44'0 0.0
2018-Jan-06 18:58N 46°30' E 030°44'0 0.0
2018-Jan-06 18:28N 46°30' E 030°44'0 0.0
2018-Jan-06 17:55N 46°30' E 030°44'0 0.0
2018-Jan-06 17:28N 46°30' E 030°44'0 0.0
2018-Jan-06 17:00N 46°30' E 030°44'0 0.0
2018-Jan-06 16:31N 46°30' E 030°44'0 0.0
2018-Jan-06 15:58N 46°30' E 030°44'0 0.0
2018-Jan-06 15:30N 46°30' E 030°44'0 0.0
2018-Jan-06 14:57N 46°30' E 030°44'0 0.0
2018-Jan-06 14:26N 46°30' E 030°44'0 0.0
2018-Jan-06 14:01N 46°30' E 030°44'0 0.0
2018-Jan-06 13:30N 46°30' E 030°44'0 0.0
2018-Jan-06 13:00N 46°30' E 030°44'0 0.0
2018-Jan-06 12:28N 46°30' E 030°44'0 0.0
2018-Jan-06 12:00N 46°30' E 030°44'0 0.0
2018-Jan-06 11:30N 46°30' E 030°44'0 0.0
2018-Jan-06 10:57N 46°30' E 030°44'0 0.0
2018-Jan-06 10:25N 46°30' E 030°44'0 0.0
2018-Jan-06 09:53N 46°30' E 030°44'0 0.0
2018-Jan-06 09:23N 46°30' E 030°44'0 0.0
2018-Jan-06 09:01N 46°30' E 030°44'0 0.0
2018-Jan-06 08:27N 46°30' E 030°44'0 0.0
2018-Jan-06 08:00N 46°30' E 030°44'0 0.0
2018-Jan-06 07:30N 46°30' E 030°44'0 0.0
2018-Jan-06 06:58N 46°30' E 030°44'0 0.0
2018-Jan-06 06:25N 46°30' E 030°44'0 0.0
2018-Jan-06 05:58N 46°30' E 030°44'0 0.0
2018-Jan-06 05:30N 46°30' E 030°44'0 0.0
2018-Jan-06 04:59N 46°30' E 030°44'0 0.0
2018-Jan-06 04:31N 46°30' E 030°44'0 0.0
2018-Jan-06 03:52N 46°30' E 030°44'0 0.0
2018-Jan-06 03:30N 46°30' E 030°44'0 0.0
2018-Jan-06 03:00N 46°30' E 030°44'0 0.0
2018-Jan-06 02:30N 46°30' E 030°44'0 0.0
2018-Jan-06 02:01N 46°30' E 030°44'0 0.0
2018-Jan-06 01:30N 46°30' E 030°44'0 0.0
2018-Jan-06 00:59N 46°30' E 030°44'0 0.0
2018-Jan-06 00:30N 46°30' E 030°44'0 0.0
2018-Jan-06 00:01N 46°30' E 030°44'0 0.0
2018-Jan-05 23:30N 46°30' E 030°44'0 0.0
2018-Jan-05 22:54N 46°30' E 030°44'0 0.0
2018-Jan-05 22:21N 46°30' E 030°44'0 0.0
2018-Jan-05 21:57N 46°30' E 030°44'0 0.0
2018-Jan-05 21:27N 46°30' E 030°44'0 0.0
2018-Jan-05 21:00N 46°30' E 030°44'0 0.0
2018-Jan-05 20:09N 46°30' E 030°44'0 0.0
2018-Jan-05 19:57N 46°30' E 030°44'0 0.0
2018-Jan-05 19:27N 46°30' E 030°44'0 0.0
2018-Jan-05 19:00N 46°30' E 030°44'0 0.0
2018-Jan-05 18:31N 46°30' E 030°44'1 1.9
2018-Jan-05 18:00N 46°30' E 030°45'3 5.4
2018-Jan-05 17:30N 46°30' E 030°49'3 6.0
2018-Jan-05 17:00N 46°29' E 030°53'0 0.6
2018-Jan-05 16:30N 46°30' E 030°53'0 0.0
2018-Jan-05 16:00N 46°30' E 030°53'0 0.0
2018-Jan-05 15:31N 46°30' E 030°53'0 0.1
2018-Jan-05 15:00N 46°30' E 030°53'0 0.1
2018-Jan-05 14:31N 46°30' E 030°53'0 0.1
2018-Jan-05 14:00N 46°30' E 030°53'0 0.1
2018-Jan-05 13:30N 46°30' E 030°53'0 0.1
2018-Jan-05 13:01N 46°30' E 030°53'0 0.0
2018-Jan-05 12:30N 46°30' E 030°53'0 0.0
2018-Jan-05 12:00N 46°30' E 030°53'0 0.0
2018-Jan-05 11:30N 46°30' E 030°53'0 0.0
2018-Jan-05 11:00N 46°30' E 030°53'0 0.0
2018-Jan-05 10:31N 46°30' E 030°53'0 0.0
2018-Jan-05 10:00N 46°29' E 030°53'0 0.0
2018-Jan-05 09:30N 46°29' E 030°53'0 0.0
2018-Jan-05 09:00N 46°29' E 030°53'0 0.1
2018-Jan-05 08:31N 46°29' E 030°53'0 0.0
2018-Jan-05 08:00N 46°30' E 030°53'0 0.0
2018-Jan-05 07:30N 46°30' E 030°53'0 0.0
2018-Jan-05 07:01N 46°29' E 030°53'0 0.0
2018-Jan-05 06:30N 46°29' E 030°53'0 0.0
2018-Jan-05 06:00N 46°29' E 030°53'0 0.0
2018-Jan-05 05:31N 46°29' E 030°53'0 0.0
2018-Jan-05 05:01N 46°30' E 030°53'0 0.0
2018-Jan-05 04:30N 46°29' E 030°53'0 0.0
2018-Jan-05 04:00N 46°30' E 030°53'0 0.0
2018-Jan-05 03:31N 46°29' E 030°53'0 0.0
2018-Jan-05 03:00N 46°29' E 030°53'0 0.0
2018-Jan-05 02:30N 46°30' E 030°53'0 0.0
2018-Jan-05 02:00N 46°30' E 030°53'0 0.0
2018-Jan-05 01:30N 46°30' E 030°53'0 0.0
2018-Jan-05 01:00N 46°30' E 030°53'0 0.0
2018-Jan-05 00:31N 46°30' E 030°53'0 0.0
2018-Jan-05 00:01N 46°30' E 030°53'0 0.0
2018-Jan-04 23:30N 46°29' E 030°53'0 0.0
2018-Jan-04 23:00N 46°29' E 030°53'0 0.0
2018-Jan-04 22:30N 46°29' E 030°53'0 0.0
2018-Jan-04 22:01N 46°29' E 030°53'0 0.0
2018-Jan-04 21:31N 46°29' E 030°53'0 0.1
2018-Jan-04 21:00N 46°29' E 030°53'0 0.0
2018-Jan-04 20:30N 46°29' E 030°53'0 0.0
2018-Jan-04 20:01N 46°29' E 030°53'0 0.0
2018-Jan-04 19:31N 46°29' E 030°53'0 0.1
2018-Jan-04 19:00N 46°30' E 030°53'0 0.0
2018-Jan-04 18:31N 46°30' E 030°53'0 0.0
2018-Jan-04 18:00N 46°30' E 030°53'0 0.1
2018-Jan-04 17:31N 46°30' E 030°53'0 0.1
2018-Jan-04 17:00N 46°30' E 030°53'0 0.0
2018-Jan-04 16:30N 46°30' E 030°53'0 0.0
2018-Jan-04 16:01N 46°30' E 030°53'0 0.1
2018-Jan-04 15:31N 46°30' E 030°53'0 0.0
2018-Jan-04 15:00N 46°30' E 030°53'0 0.0
2018-Jan-04 14:30N 46°30' E 030°53'0 0.0
2018-Jan-04 14:00N 46°30' E 030°53'0 0.0
2018-Jan-04 13:30N 46°30' E 030°53'0 0.0
2018-Jan-04 13:00N 46°30' E 030°53'0 0.0
2018-Jan-04 12:31N 46°30' E 030°53'0 0.0
2018-Jan-04 12:01N 46°30' E 030°53'0 0.0
2018-Jan-04 11:31N 46°30' E 030°53'0 0.0
2018-Jan-04 11:00N 46°30' E 030°53'0 0.0
2018-Jan-04 10:30N 46°29' E 030°53'0 0.0
2018-Jan-04 10:00N 46°29' E 030°53'0 0.0
2018-Jan-04 09:30N 46°29' E 030°53'0 0.0
2018-Jan-04 09:01N 46°29' E 030°53'0 0.0
2018-Jan-04 08:30N 46°29' E 030°53'0 0.3
2018-Jan-04 08:00N 46°30' E 030°53'0 0.1
2018-Jan-04 07:30N 46°30' E 030°53'0 0.0
2018-Jan-04 07:00N 46°30' E 030°53'0 0.0
2018-Jan-04 06:31N 46°30' E 030°53'0 0.2
2018-Jan-04 06:00N 46°30' E 030°53'0 0.2
2018-Jan-04 05:30N 46°30' E 030°53'0 0.2
2018-Jan-04 05:00N 46°30' E 030°53'0 0.1
2018-Jan-04 04:30N 46°30' E 030°53'0 0.1
2018-Jan-04 04:01N 46°30' E 030°53'0 0.0
2018-Jan-04 03:30N 46°30' E 030°53'0 0.0
2018-Jan-04 03:00N 46°30' E 030°53'0 0.0
2018-Jan-04 02:30N 46°30' E 030°53'0 0.0
2018-Jan-04 02:00N 46°30' E 030°53'0 0.0
2018-Jan-04 01:30N 46°30' E 030°53'0 0.0
2018-Jan-04 01:00N 46°30' E 030°53'0 0.0
2018-Jan-04 00:30N 46°30' E 030°53'0 0.0
2018-Jan-04 00:00N 46°30' E 030°53'0 0.0
2018-Jan-03 23:30N 46°30' E 030°53'0 0.0
2018-Jan-03 23:00N 46°30' E 030°53'0 0.0
2018-Jan-03 22:31N 46°30' E 030°53'0 0.0
2018-Jan-03 22:01N 46°30' E 030°53'0 0.0
2018-Jan-03 21:30N 46°30' E 030°53'0 0.0
2018-Jan-03 21:00N 46°30' E 030°53'0 0.0
2018-Jan-03 20:30N 46°30' E 030°53'0 0.0
2018-Jan-03 20:00N 46°30' E 030°53'0 0.0
2018-Jan-03 19:31N 46°30' E 030°53'0 0.0
2018-Jan-03 19:01N 46°30' E 030°53'0 0.0
2018-Jan-03 18:31N 46°30' E 030°53'0 0.1
2018-Jan-03 18:01N 46°30' E 030°53'0 0.0
2018-Jan-03 17:31N 46°30' E 030°53'0 0.0
2018-Jan-03 17:01N 46°30' E 030°53'0 0.0
2018-Jan-03 16:31N 46°30' E 030°53'0 0.0
2018-Jan-03 16:00N 46°30' E 030°53'0 0.1
2018-Jan-03 15:30N 46°30' E 030°53'0 0.2
2018-Jan-03 15:01N 46°30' E 030°53'0 0.0
2018-Jan-03 14:31N 46°30' E 030°53'0 0.0
2018-Jan-03 14:01N 46°30' E 030°53'0 0.0
2018-Jan-03 13:30N 46°30' E 030°53'0 0.0
2018-Jan-03 13:01N 46°30' E 030°53'0 0.1
2018-Jan-03 12:30N 46°30' E 030°53'0 0.0
2018-Jan-03 12:00N 46°30' E 030°53'0 0.0
2018-Jan-03 11:30N 46°30' E 030°53'0 0.0
2018-Jan-03 11:01N 46°30' E 030°53'0 0.0
2018-Jan-03 10:30N 46°30' E 030°53'0 0.0
2018-Jan-03 10:01N 46°30' E 030°53'0 0.0
2018-Jan-03 09:30N 46°30' E 030°53'0 0.0
2018-Jan-03 09:00N 46°30' E 030°53'0 0.0
2018-Jan-03 08:30N 46°30' E 030°53'0 0.0
2018-Jan-03 08:00N 46°30' E 030°53'0 0.0
2018-Jan-03 07:31N 46°30' E 030°53'0 0.0
2018-Jan-03 07:00N 46°30' E 030°53'0 0.1
2018-Jan-03 06:30N 46°30' E 030°53'0 0.0
2018-Jan-03 06:00N 46°30' E 030°53'0 0.0
2018-Jan-03 05:30N 46°30' E 030°53'0 0.0
2018-Jan-03 05:00N 46°30' E 030°53'0 0.1
2018-Jan-03 04:30N 46°30' E 030°53'0 0.0
2018-Jan-03 04:00N 46°30' E 030°53'0 0.1
2018-Jan-03 03:30N 46°30' E 030°53'0 0.0
2018-Jan-03 03:01N 46°30' E 030°53'0 0.1
2018-Jan-03 02:31N 46°30' E 030°53'0 0.1
2018-Jan-03 02:01N 46°30' E 030°53'0 0.0
2018-Jan-03 01:31N 46°30' E 030°53'0 0.1
2018-Jan-03 01:00N 46°30' E 030°53'0 0.1
2018-Jan-03 00:30N 46°30' E 030°53'0 0.0
2018-Jan-03 00:00N 46°30' E 030°53'0 0.0
2018-Jan-02 23:30N 46°30' E 030°53'0 0.1
2018-Jan-02 23:01N 46°30' E 030°53'0 0.0
2018-Jan-02 22:31N 46°30' E 030°53'0 0.0
2018-Jan-02 22:00N 46°30' E 030°53'0 0.0
2018-Jan-02 21:30N 46°30' E 030°53'0 0.0
2018-Jan-02 21:01N 46°30' E 030°53'0 0.0
2018-Jan-02 20:30N 46°30' E 030°53'0 0.0
2018-Jan-02 20:00N 46°30' E 030°53'0 0.0
2018-Jan-02 19:30N 46°30' E 030°53'0 0.0
2018-Jan-02 19:00N 46°30' E 030°53'0 0.0
2018-Jan-02 18:30N 46°30' E 030°53'0 0.0
2018-Jan-02 18:00N 46°30' E 030°53'0 0.0
2018-Jan-02 17:30N 46°30' E 030°53'0 0.0
2018-Jan-02 17:01N 46°30' E 030°53'0 0.0
2018-Jan-02 16:30N 46°30' E 030°53'2 3.2
2018-Jan-02 16:00N 46°28' E 030°53'4 8.0
2018-Jan-02 15:31N 46°24' E 030°52'612.6
2018-Jan-02 15:00N 46°18' E 030°55'  
Track history (hours):
 
Tides and Currents Weather Stations Pressure Air Temp Water Temp Dewpoint Dewpoint Depression Visibility Wind Speed Wind Dir Waves Ship Positions

Nord Emperor

Last reported at 2018-Jan-12 14:58 UTC. Time now 2018-Jan-18 00:05 UTC.
Position N 37°37' E 025°50'.

Length 190 m; draft 12.4 m.

Type: Cargo ship. MMSI: 357960000.

Date/timePositionNaut miles runAvg speedWind from/ knotsBaromVisibWave heightAir tempDewpointWater temp
2018-Jan-12 14:58N 37°37' E 025°50'510.9
2018-Jan-12 14:30N 37°42' E 025°50'511.1
2018-Jan-12 14:00N 37°48' E 025°49'611.1
2018-Jan-12 13:30N 37°53' E 025°48'611.1
2018-Jan-12 12:59N 37°59' E 025°46'611.3
2018-Jan-12 12:28N 38°04' E 025°42'352 6.9
2018-Jan-10 09:42N 43°05' E 029°44'311.6
2018-Jan-10 09:27N 43°08' E 029°45'611.6
2018-Jan-10 08:58N 43°13' E 029°47'611.7
2018-Jan-10 08:29N 43°19' E 029°48'711.9
2018-Jan-10 07:56N 43°25' E 029°50'612.2
2018-Jan-10 07:28N 43°31' E 029°52'512.2
2018-Jan-10 07:01N 43°36' E 029°54'612.1
2018-Jan-10 06:30N 43°42' E 029°56'612.2
2018-Jan-10 06:01N 43°48' E 029°58'612.4
2018-Jan-10 05:30N 43°54' E 030°00'912.1
2018-Jan-10 04:48N 44°02' E 030°03'412.0
2018-Jan-10 04:29N 44°06' E 030°05'5212.3
2018-Jan-10 00:13N 44°55' E 030°29'512.2
2018-Jan-09 23:47N 45°00' E 030°31'7511.6
2018-Jan-09 17:19N 46°13' E 030°57'411.6
2018-Jan-09 17:00N 46°15' E 030°54'611.9
2018-Jan-09 16:31N 46°21' E 030°55'611.7
2018-Jan-09 15:59N 46°27' E 030°55'2 5.1
2018-Jan-09 15:30N 46°30' E 030°53'0 0.1
2018-Jan-09 14:54N 46°29' E 030°53'0 0.0
2018-Jan-09 14:27N 46°29' E 030°53'0 0.0
2018-Jan-09 11:54N 46°29' E 030°53'0 0.0
2018-Jan-09 09:45N 46°29' E 030°53'0 0.0
2018-Jan-09 09:30N 46°29' E 030°53'0 0.0
2018-Jan-09 08:54N 46°29' E 030°53'0 0.0
2018-Jan-09 08:27N 46°29' E 030°53'0 0.0
2018-Jan-09 08:00N 46°29' E 030°53'0 0.0
2018-Jan-09 07:21N 46°29' E 030°53'0 0.0
2018-Jan-09 06:57N 46°29' E 030°53'0 0.0
2018-Jan-09 06:27N 46°29' E 030°53'0 0.0
2018-Jan-09 05:57N 46°29' E 030°53'0 0.0
2018-Jan-09 05:18N 46°29' E 030°53'0 0.0
2018-Jan-09 04:48N 46°29' E 030°53'0 0.0
2018-Jan-09 04:30N 46°29' E 030°53'0 0.0
2018-Jan-09 03:54N 46°29' E 030°53'0 0.1
2018-Jan-09 03:30N 46°30' E 030°53'0 0.0
2018-Jan-09 03:00N 46°30' E 030°53'0 0.0
2018-Jan-09 02:21N 46°30' E 030°53'0 0.0
2018-Jan-09 01:57N 46°30' E 030°53'0 0.0
2018-Jan-09 01:30N 46°30' E 030°53'0 0.0
2018-Jan-09 01:00N 46°30' E 030°53'0 0.0
2018-Jan-09 00:30N 46°29' E 030°53'0 0.0
2018-Jan-08 23:57N 46°30' E 030°53'0 0.0
2018-Jan-08 23:30N 46°30' E 030°53'0 0.0
2018-Jan-08 22:54N 46°30' E 030°53'0 0.0
2018-Jan-08 22:18N 46°30' E 030°53'0 0.1
2018-Jan-08 21:54N 46°30' E 030°53'0 0.1
2018-Jan-08 21:30N 46°30' E 030°53'0 0.0
2018-Jan-08 20:51N 46°30' E 030°53'0 0.0
2018-Jan-08 20:18N 46°30' E 030°53'0 0.0
2018-Jan-08 20:00N 46°30' E 030°53'0 0.0
2018-Jan-08 19:24N 46°30' E 030°53'0 0.0
2018-Jan-08 19:00N 46°30' E 030°53'0 0.0
2018-Jan-08 18:27N 46°30' E 030°53'0 0.0
2018-Jan-08 17:33N 46°30' E 030°53'0 0.1
2018-Jan-08 17:30N 46°30' E 030°53'0 0.0
2018-Jan-08 16:27N 46°30' E 030°53'2 4.1
2018-Jan-08 16:00N 46°29' E 030°50'4 7.1
2018-Jan-08 15:30N 46°30' E 030°45'1 2.0
2018-Jan-08 15:00N 46°30' E 030°44'0 0.3
2018-Jan-08 14:30N 46°30' E 030°44'0 0.0
2018-Jan-08 13:46N 46°30' E 030°44'0 0.0
2018-Jan-08 13:28N 46°30' E 030°44'0 0.0
2018-Jan-08 12:49N 46°30' E 030°44'0 0.0
2018-Jan-08 12:22N 46°30' E 030°44'0 0.0
2018-Jan-08 11:52N 46°30' E 030°44'0 0.0
2018-Jan-08 11:22N 46°30' E 030°44'0 0.0
2018-Jan-08 10:58N 46°30' E 030°44'0 0.0
2018-Jan-08 10:28N 46°30' E 030°44'0 0.0
2018-Jan-08 09:58N 46°30' E 030°44'0 0.0
2018-Jan-08 09:13N 46°30' E 030°44'0 0.0
2018-Jan-08 08:49N 46°30' E 030°44'0 0.0
2018-Jan-08 08:16N 46°30' E 030°44'0 0.0
2018-Jan-08 07:55N 46°30' E 030°44'0 0.0
2018-Jan-08 07:28N 46°30' E 030°44'0 0.0
2018-Jan-08 06:58N 46°30' E 030°44'0 0.0
2018-Jan-08 06:28N 46°30' E 030°44'0 0.0
2018-Jan-08 05:55N 46°30' E 030°44'0 0.0
2018-Jan-08 05:25N 46°30' E 030°44'0 0.0
2018-Jan-08 04:46N 46°30' E 030°44'0 0.0
2018-Jan-08 04:22N 46°30' E 030°44'0 0.0
2018-Jan-08 03:49N 46°30' E 030°44'0 0.0
2018-Jan-08 03:07N 46°30' E 030°44'0 0.0
2018-Jan-08 02:55N 46°30' E 030°44'0 0.0
2018-Jan-08 02:25N 46°30' E 030°44'0 0.0
2018-Jan-08 01:37N 46°30' E 030°44'0 0.0
2018-Jan-08 01:25N 46°30' E 030°44'0 0.0
2018-Jan-08 00:58N 46°30' E 030°44'0 0.0
2018-Jan-08 00:28N 46°30' E 030°44'0 0.0
2018-Jan-07 23:49N 46°30' E 030°44'0 0.0
2018-Jan-07 23:28N 46°30' E 030°44'0 0.0
2018-Jan-07 22:58N 46°30' E 030°44'0 0.0
2018-Jan-07 22:25N 46°30' E 030°44'0 0.0
2018-Jan-07 21:49N 46°30' E 030°44'0 0.0
2018-Jan-07 21:19N 46°30' E 030°44'0 0.0
2018-Jan-07 20:58N 46°30' E 030°44'0 0.0
2018-Jan-07 20:25N 46°30' E 030°44'0 0.0
2018-Jan-07 19:55N 46°30' E 030°44'0 0.0
2018-Jan-07 19:28N 46°30' E 030°44'0 0.0
2018-Jan-07 18:52N 46°30' E 030°44'0 0.0
2018-Jan-07 18:28N 46°30' E 030°44'0 0.0
2018-Jan-07 17:58N 46°30' E 030°44'0 0.0
2018-Jan-07 17:28N 46°30' E 030°44'0 0.0
2018-Jan-07 16:58N 46°30' E 030°44'0 0.0
2018-Jan-07 16:28N 46°30' E 030°44'0 0.0
2018-Jan-07 15:58N 46°30' E 030°44'0 0.0
2018-Jan-07 15:28N 46°30' E 030°44'0 0.0
2018-Jan-07 14:58N 46°30' E 030°44'0 0.0
2018-Jan-07 14:28N 46°30' E 030°44'0 0.0
2018-Jan-07 13:58N 46°30' E 030°44'0 0.0
2018-Jan-07 13:28N 46°30' E 030°44'0 0.0
2018-Jan-07 12:58N 46°30' E 030°44'0 0.0
2018-Jan-07 12:28N 46°30' E 030°44'0 0.0
2018-Jan-07 11:55N 46°30' E 030°44'0 0.0
2018-Jan-07 11:28N 46°30' E 030°44'0 0.0
2018-Jan-07 10:55N 46°30' E 030°44'0 0.0
2018-Jan-07 10:28N 46°30' E 030°44'0 0.0
2018-Jan-07 09:55N 46°30' E 030°44'0 0.0
2018-Jan-07 09:28N 46°30' E 030°44'0 0.0
2018-Jan-07 08:58N 46°30' E 030°44'0 0.0
2018-Jan-07 08:28N 46°30' E 030°44'0 0.0
2018-Jan-07 07:55N 46°30' E 030°44'0 0.0
2018-Jan-07 07:25N 46°30' E 030°44'0 0.0
2018-Jan-07 06:55N 46°30' E 030°44'0 0.0
2018-Jan-07 06:28N 46°30' E 030°44'0 0.0
2018-Jan-07 05:58N 46°30' E 030°44'0 0.0
2018-Jan-07 05:28N 46°30' E 030°44'0 0.0
2018-Jan-07 04:58N 46°30' E 030°44'0 0.0
2018-Jan-07 04:28N 46°30' E 030°44'0 0.0
2018-Jan-07 03:58N 46°30' E 030°44'0 0.0
2018-Jan-07 03:28N 46°30' E 030°44'0 0.0
2018-Jan-07 02:58N 46°30' E 030°44'0 0.0
2018-Jan-07 02:28N 46°30' E 030°44'0 0.0
2018-Jan-07 01:58N 46°30' E 030°44'0 0.0
2018-Jan-07 01:28N 46°30' E 030°44'0 0.0
2018-Jan-07 00:28N 46°30' E 030°44'0 0.0
2018-Jan-06 23:58N 46°30' E 030°44'0 0.0
2018-Jan-06 23:28N 46°30' E 030°44'0 0.0
2018-Jan-06 22:52N 46°30' E 030°44'0 0.0
2018-Jan-06 22:25N 46°30' E 030°44'0 0.0
2018-Jan-06 21:52N 46°30' E 030°44'0 0.0
2018-Jan-06 21:25N 46°30' E 030°44'0 0.0
2018-Jan-06 20:55N 46°30' E 030°44'0 0.0
2018-Jan-06 20:28N 46°30' E 030°44'0 0.0
2018-Jan-06 19:52N 46°30' E 030°44'0 0.0
2018-Jan-06 19:25N 46°30' E 030°44'0 0.0
2018-Jan-06 18:58N 46°30' E 030°44'0 0.0
2018-Jan-06 18:28N 46°30' E 030°44'0 0.0
2018-Jan-06 17:55N 46°30' E 030°44'0 0.0
2018-Jan-06 17:28N 46°30' E 030°44'0 0.0
2018-Jan-06 17:00N 46°30' E 030°44'0 0.0
2018-Jan-06 16:31N 46°30' E 030°44'0 0.0
2018-Jan-06 15:58N 46°30' E 030°44'0 0.0
2018-Jan-06 15:30N 46°30' E 030°44'0 0.0
2018-Jan-06 14:57N 46°30' E 030°44'0 0.0
2018-Jan-06 14:26N 46°30' E 030°44'0 0.0
2018-Jan-06 14:01N 46°30' E 030°44'0 0.0
2018-Jan-06 13:30N 46°30' E 030°44'0 0.0
2018-Jan-06 13:00N 46°30' E 030°44'0 0.0
2018-Jan-06 12:28N 46°30' E 030°44'0 0.0
2018-Jan-06 12:00N 46°30' E 030°44'0 0.0
2018-Jan-06 11:30N 46°30' E 030°44'0 0.0
2018-Jan-06 10:57N 46°30' E 030°44'0 0.0
2018-Jan-06 10:25N 46°30' E 030°44'0 0.0
2018-Jan-06 09:53N 46°30' E 030°44'0 0.0
2018-Jan-06 09:23N 46°30' E 030°44'0 0.0
2018-Jan-06 09:01N 46°30' E 030°44'0 0.0
2018-Jan-06 08:27N 46°30' E 030°44'0 0.0
2018-Jan-06 08:00N 46°30' E 030°44'0 0.0
2018-Jan-06 07:30N 46°30' E 030°44'0 0.0
2018-Jan-06 06:58N 46°30' E 030°44'0 0.0
2018-Jan-06 06:25N 46°30' E 030°44'0 0.0
2018-Jan-06 05:58N 46°30' E 030°44'0 0.0
2018-Jan-06 05:30N 46°30' E 030°44'0 0.0
2018-Jan-06 04:59N 46°30' E 030°44'0 0.0
2018-Jan-06 04:31N 46°30' E 030°44'0 0.0
2018-Jan-06 03:52N 46°30' E 030°44'0 0.0
2018-Jan-06 03:30N 46°30' E 030°44'0 0.0
2018-Jan-06 03:00N 46°30' E 030°44'0 0.0
2018-Jan-06 02:30N 46°30' E 030°44'0 0.0
2018-Jan-06 02:01N 46°30' E 030°44'0 0.0
2018-Jan-06 01:30N 46°30' E 030°44'0 0.0
2018-Jan-06 00:59N 46°30' E 030°44'0 0.0
2018-Jan-06 00:30N 46°30' E 030°44'0 0.0
2018-Jan-06 00:01N 46°30' E 030°44'0 0.0
2018-Jan-05 23:30N 46°30' E 030°44'0 0.0
2018-Jan-05 22:54N 46°30' E 030°44'0 0.0
2018-Jan-05 22:21N 46°30' E 030°44'0 0.0
2018-Jan-05 21:57N 46°30' E 030°44'0 0.0
2018-Jan-05 21:27N 46°30' E 030°44'0 0.0
2018-Jan-05 21:00N 46°30' E 030°44'0 0.0
2018-Jan-05 20:09N 46°30' E 030°44'0 0.0
2018-Jan-05 19:57N 46°30' E 030°44'0 0.0
2018-Jan-05 19:27N 46°30' E 030°44'0 0.0
2018-Jan-05 19:00N 46°30' E 030°44'0 0.0
2018-Jan-05 18:31N 46°30' E 030°44'1 1.9
2018-Jan-05 18:00N 46°30' E 030°45'3 5.4
2018-Jan-05 17:30N 46°30' E 030°49'3 6.0
2018-Jan-05 17:00N 46°29' E 030°53'0 0.6
2018-Jan-05 16:30N 46°30' E 030°53'0 0.0
2018-Jan-05 16:00N 46°30' E 030°53'0 0.0
2018-Jan-05 15:31N 46°30' E 030°53'0 0.1
2018-Jan-05 15:00N 46°30' E 030°53'0 0.1
2018-Jan-05 14:31N 46°30' E 030°53'0 0.1
2018-Jan-05 14:00N 46°30' E 030°53'0 0.1
2018-Jan-05 13:30N 46°30' E 030°53'0 0.1
2018-Jan-05 13:01N 46°30' E 030°53'0 0.0
2018-Jan-05 12:30N 46°30' E 030°53'0 0.0
2018-Jan-05 12:00N 46°30' E 030°53'0 0.0
2018-Jan-05 11:30N 46°30' E 030°53'0 0.0
2018-Jan-05 11:00N 46°30' E 030°53'0 0.0
2018-Jan-05 10:31N 46°30' E 030°53'0 0.0
2018-Jan-05 10:00N 46°29' E 030°53'0 0.0
2018-Jan-05 09:30N 46°29' E 030°53'0 0.0
2018-Jan-05 09:00N 46°29' E 030°53'0 0.1
2018-Jan-05 08:31N 46°29' E 030°53'0 0.0
2018-Jan-05 08:00N 46°30' E 030°53'0 0.0
2018-Jan-05 07:30N 46°30' E 030°53'0 0.0
2018-Jan-05 07:01N 46°29' E 030°53'0 0.0
2018-Jan-05 06:30N 46°29' E 030°53'0 0.0
2018-Jan-05 06:00N 46°29' E 030°53'0 0.0
2018-Jan-05 05:31N 46°29' E 030°53'0 0.0
2018-Jan-05 05:01N 46°30' E 030°53'0 0.0
2018-Jan-05 04:30N 46°29' E 030°53'0 0.0
2018-Jan-05 04:00N 46°30' E 030°53'0 0.0
2018-Jan-05 03:31N 46°29' E 030°53'0 0.0
2018-Jan-05 03:00N 46°29' E 030°53'0 0.0
2018-Jan-05 02:30N 46°30' E 030°53'0 0.0
2018-Jan-05 02:00N 46°30' E 030°53'0 0.0
2018-Jan-05 01:30N 46°30' E 030°53'0 0.0
2018-Jan-05 01:00N 46°30' E 030°53'0 0.0
2018-Jan-05 00:31N 46°30' E 030°53'0 0.0
2018-Jan-05 00:01N 46°30' E 030°53'0 0.0
2018-Jan-04 23:30N 46°29' E 030°53'0 0.0
2018-Jan-04 23:00N 46°29' E 030°53'0 0.0
2018-Jan-04 22:30N 46°29' E 030°53'0 0.0
2018-Jan-04 22:01N 46°29' E 030°53'0 0.0
2018-Jan-04 21:31N 46°29' E 030°53'0 0.1
2018-Jan-04 21:00N 46°29' E 030°53'0 0.0
2018-Jan-04 20:30N 46°29' E 030°53'0 0.0
2018-Jan-04 20:01N 46°29' E 030°53'0 0.0
2018-Jan-04 19:31N 46°29' E 030°53'0 0.1
2018-Jan-04 19:00N 46°30' E 030°53'0 0.0
2018-Jan-04 18:31N 46°30' E 030°53'0 0.0
2018-Jan-04 18:00N 46°30' E 030°53'0 0.1
2018-Jan-04 17:31N 46°30' E 030°53'0 0.1
2018-Jan-04 17:00N 46°30' E 030°53'0 0.0
2018-Jan-04 16:30N 46°30' E 030°53'0 0.0
2018-Jan-04 16:01N 46°30' E 030°53'0 0.1
2018-Jan-04 15:31N 46°30' E 030°53'0 0.0
2018-Jan-04 15:00N 46°30' E 030°53'0 0.0
2018-Jan-04 14:30N 46°30' E 030°53'0 0.0
2018-Jan-04 14:00N 46°30' E 030°53'0 0.0
2018-Jan-04 13:30N 46°30' E 030°53'0 0.0
2018-Jan-04 13:00N 46°30' E 030°53'0 0.0
2018-Jan-04 12:31N 46°30' E 030°53'0 0.0
2018-Jan-04 12:01N 46°30' E 030°53'0 0.0
2018-Jan-04 11:31N 46°30' E 030°53'0 0.0
2018-Jan-04 11:00N 46°30' E 030°53'0 0.0
2018-Jan-04 10:30N 46°29' E 030°53'0 0.0
2018-Jan-04 10:00N 46°29' E 030°53'0 0.0
2018-Jan-04 09:30N 46°29' E 030°53'0 0.0
2018-Jan-04 09:01N 46°29' E 030°53'0 0.0
2018-Jan-04 08:30N 46°29' E 030°53'0 0.3
2018-Jan-04 08:00N 46°30' E 030°53'0 0.1
2018-Jan-04 07:30N 46°30' E 030°53'0 0.0
2018-Jan-04 07:00N 46°30' E 030°53'0 0.0
2018-Jan-04 06:31N 46°30' E 030°53'0 0.2
2018-Jan-04 06:00N 46°30' E 030°53'0 0.2
2018-Jan-04 05:30N 46°30' E 030°53'0 0.2
2018-Jan-04 05:00N 46°30' E 030°53'0 0.1
2018-Jan-04 04:30N 46°30' E 030°53'0 0.1
2018-Jan-04 04:01N 46°30' E 030°53'0 0.0
2018-Jan-04 03:30N 46°30' E 030°53'0 0.0
2018-Jan-04 03:00N 46°30' E 030°53'0 0.0
2018-Jan-04 02:30N 46°30' E 030°53'0 0.0
2018-Jan-04 02:00N 46°30' E 030°53'0 0.0
2018-Jan-04 01:30N 46°30' E 030°53'0 0.0
2018-Jan-04 01:00N 46°30' E 030°53'0 0.0
2018-Jan-04 00:30N 46°30' E 030°53'0 0.0
2018-Jan-04 00:00N 46°30' E 030°53'0 0.0
2018-Jan-03 23:30N 46°30' E 030°53'0 0.0
2018-Jan-03 23:00N 46°30' E 030°53'0 0.0
2018-Jan-03 22:31N 46°30' E 030°53'0 0.0
2018-Jan-03 22:01N 46°30' E 030°53'0 0.0
2018-Jan-03 21:30N 46°30' E 030°53'0 0.0
2018-Jan-03 21:00N 46°30' E 030°53'0 0.0
2018-Jan-03 20:30N 46°30' E 030°53'0 0.0
2018-Jan-03 20:00N 46°30' E 030°53'0 0.0
2018-Jan-03 19:31N 46°30' E 030°53'0 0.0
2018-Jan-03 19:01N 46°30' E 030°53'0 0.0
2018-Jan-03 18:31N 46°30' E 030°53'0 0.1
2018-Jan-03 18:01N 46°30' E 030°53'0 0.0
2018-Jan-03 17:31N 46°30' E 030°53'0 0.0
2018-Jan-03 17:01N 46°30' E 030°53'0 0.0
2018-Jan-03 16:31N 46°30' E 030°53'0 0.0
2018-Jan-03 16:00N 46°30' E 030°53'0 0.1
2018-Jan-03 15:30N 46°30' E 030°53'0 0.2
2018-Jan-03 15:01N 46°30' E 030°53'0 0.0
2018-Jan-03 14:31N 46°30' E 030°53'0 0.0
2018-Jan-03 14:01N 46°30' E 030°53'0 0.0
2018-Jan-03 13:30N 46°30' E 030°53'0 0.0
2018-Jan-03 13:01N 46°30' E 030°53'0 0.1
2018-Jan-03 12:30N 46°30' E 030°53'0 0.0
2018-Jan-03 12:00N 46°30' E 030°53'0 0.0
2018-Jan-03 11:30N 46°30' E 030°53'0 0.0
2018-Jan-03 11:01N 46°30' E 030°53'0 0.0
2018-Jan-03 10:30N 46°30' E 030°53'0 0.0
2018-Jan-03 10:01N 46°30' E 030°53'0 0.0
2018-Jan-03 09:30N 46°30' E 030°53'0 0.0
2018-Jan-03 09:00N 46°30' E 030°53'0 0.0
2018-Jan-03 08:30N 46°30' E 030°53'0 0.0
2018-Jan-03 08:00N 46°30' E 030°53'0 0.0
2018-Jan-03 07:31N 46°30' E 030°53'0 0.0
2018-Jan-03 07:00N 46°30' E 030°53'0 0.1
2018-Jan-03 06:30N 46°30' E 030°53'0 0.0
2018-Jan-03 06:00N 46°30' E 030°53'0 0.0
2018-Jan-03 05:30N 46°30' E 030°53'0 0.0
2018-Jan-03 05:00N 46°30' E 030°53'0 0.1
2018-Jan-03 04:30N 46°30' E 030°53'0 0.0
2018-Jan-03 04:00N 46°30' E 030°53'0 0.1
2018-Jan-03 03:30N 46°30' E 030°53'0 0.0
2018-Jan-03 03:01N 46°30' E 030°53'0 0.1
2018-Jan-03 02:31N 46°30' E 030°53'0 0.1
2018-Jan-03 02:01N 46°30' E 030°53'0 0.0
2018-Jan-03 01:31N 46°30' E 030°53'0 0.1
2018-Jan-03 01:00N 46°30' E 030°53'0 0.1
2018-Jan-03 00:30N 46°30' E 030°53'0 0.0
2018-Jan-03 00:00N 46°30' E 030°53'0 0.0
2018-Jan-02 23:30N 46°30' E 030°53'0 0.1
2018-Jan-02 23:01N 46°30' E 030°53'0 0.0
2018-Jan-02 22:31N 46°30' E 030°53'0 0.0
2018-Jan-02 22:00N 46°30' E 030°53'0 0.0
2018-Jan-02 21:30N 46°30' E 030°53'0 0.0
2018-Jan-02 21:01N 46°30' E 030°53'0 0.0
2018-Jan-02 20:30N 46°30' E 030°53'0 0.0
2018-Jan-02 20:00N 46°30' E 030°53'0 0.0
2018-Jan-02 19:30N 46°30' E 030°53'0 0.0
2018-Jan-02 19:00N 46°30' E 030°53'0 0.0
2018-Jan-02 18:30N 46°30' E 030°53'0 0.0
2018-Jan-02 18:00N 46°30' E 030°53'0 0.0
2018-Jan-02 17:30N 46°30' E 030°53'0 0.0
2018-Jan-02 17:01N 46°30' E 030°53'0 0.0
2018-Jan-02 16:30N 46°30' E 030°53'2 3.2
2018-Jan-02 16:00N 46°28' E 030°53'4 8.0
2018-Jan-02 15:31N 46°24' E 030°52'612.6
2018-Jan-02 15:00N 46°18' E 030°55'  

Dump ship's entire track history